Nearby METAR Reports

EGHH - Bournemouth Airp, United Kingdom
Distance from station: ENE 14mi, 22km
Updated: Mon, 21-May-2018 9:20pm BST
Shallow fog, Partly cloudy
Shallow fog, Partly cloudy
 Wind from NNW
Wind: NNW 3 mph , 6 km/h
Temperature: 13°C
Dew Point: 12°C
Humidity: 94%
Barometer: 1015 hPa
Summary: Shallow Fog
Clouds: Partly Cloudy
Visibility: 6 miles , 10 km
2018/05/21 20:20 EGHH 212020Z 34003KT 9999 MIFG NSC 13/12 Q1015
EGDY - Yeovilton (navy), United Kingdom
Distance from station: NW 31mi, 50km
Updated: Mon, 21-May-2018 8:50pm BST
Partly Cloudy
Partly Cloudy
 Wind from W
Wind: W 8 mph , 13 km/h
Temperature: 16°C
Dew Point: 12°C
Humidity: 77%
Barometer: 1015 hPa
Clouds: Partly Cloudy
Visibility: 6 miles , 10 km
Cloud details: Few Clouds 762 m
Partly Cloudy 1219 m
2018/05/21 19:50 EGDY 211950Z 28007KT 9999 FEW025 SCT040 16/12 Q1015 BLU NOSIG
 
EGDM - Boscombe Down, United Kingdom
Distance from station: NNE 37mi, 59km
Updated: Mon, 21-May-2018 8:50pm BST
Few Clouds
Few Clouds
 Wind from WNW
Wind: WNW 7 mph , 11 km/h
Temperature: 14°C
Dew Point: 11°C
Humidity: 82%
Barometer: 1015 hPa
Clouds: Few Clouds
Visibility: 6 miles , 10 km
Cloud details: Few Clouds 2743 m
2018/05/21 19:50 EGDM 211950Z AUTO 30006KT 9999 FEW090/// 14/11 Q1015
EGHI - Southampton Wx C, United Kingdom
Distance from station: ENE 38mi, 61km
Updated: Mon, 21-May-2018 9:20pm BST
Few Clouds
Few Clouds
 Wind from varies
Wind: varies 2 mph , 4 km/h
Temperature: 14°C
Dew Point: 12°C
Humidity: 88%
Barometer: 1014 hPa
Clouds: Few Clouds
Visibility: 6 miles , 10 km
Cloud details: Few Clouds 792 m
2018/05/21 20:20 EGHI 212020Z VRB02KT 9999 FEW026 14/12 Q1014
 
EGVP - Middle Wallop, United Kingdom
Distance from station: NE 39mi, 63km
Updated: Mon, 21-May-2018 8:50pm BST
Mostly Cloudy
Mostly Cloudy
 Wind from WNW
Wind: WNW 7 mph , 11 km/h
Temperature: 16°C
Dew Point: 10°C
Humidity: 68%
Barometer: 1014 hPa
Clouds: Mostly Cloudy
Visibility: 6 miles , 10 km
Cloud details: Few Clouds 1372 m
Partly Cloudy 2438 m
Mostly Cloudy 3658 m
2018/05/21 19:50 EGVP 211950Z 30006KT 9999 FEW045 SCT080 BKN120 16/10 Q1014 BLU NOSIG
EGGD - Bristol/Lulsgate, United Kingdom
Distance from station: NNW 54mi, 87km
Updated: Mon, 21-May-2018 9:20pm BST
Thunderstorm
Thunderstorm
 Wind from WNW
Wind: WNW 6 mph , 9 km/h
Temperature: 14°C
Dew Point: 11°C
Humidity: 82%
Barometer: 1016 hPa
Clouds: Thunderstorm
Visibility: 6 miles , 10 km
2018/05/21 20:20 EGGD 212020Z AUTO 29005KT 9999 //////TCU 14/11 Q1016

Metar display script from Saratoga-Weather.org